sensor_id;sensor_type;location;lat;lon;timestamp;P1;durP1;ratioP1;P2;durP2;ratioP2
13343;SDS011;6741;48.964;9.406;2023-04-29T00:01:41;8.07;;;6.30;;
13343;SDS011;6741;48.964;9.406;2023-04-29T00:04:08;12.40;;;5.97;;
13343;SDS011;6741;48.964;9.406;2023-04-29T00:06:39;11.60;;;5.60;;
13343;SDS011;6741;48.964;9.406;2023-04-29T00:09:06;6.70;;;5.90;;
13343;SDS011;6741;48.964;9.406;2023-04-29T00:11:33;7.37;;;5.87;;
13343;SDS011;6741;48.964;9.406;2023-04-29T00:14:00;7.17;;;6.23;;
13343;SDS011;6741;48.964;9.406;2023-04-29T00:16:27;8.17;;;5.50;;
13343;SDS011;6741;48.964;9.406;2023-04-29T00:18:54;10.43;;;6.07;;
13343;SDS011;6741;48.964;9.406;2023-04-29T00:21:21;6.50;;;5.50;;
13343;SDS011;6741;48.964;9.406;2023-04-29T00:23:49;13.07;;;6.10;;
13343;SDS011;6741;48.964;9.406;2023-04-29T00:26:16;12.77;;;6.87;;
13343;SDS011;6741;48.964;9.406;2023-04-29T00:28:43;8.43;;;5.87;;
13343;SDS011;6741;48.964;9.406;2023-04-29T00:31:10;6.87;;;5.47;;
13343;SDS011;6741;48.964;9.406;2023-04-29T00:33:37;6.97;;;5.13;;
13343;SDS011;6741;48.964;9.406;2023-04-29T00:36:05;5.67;;;4.60;;
13343;SDS011;6741;48.964;9.406;2023-04-29T00:38:32;5.67;;;4.80;;
13343;SDS011;6741;48.964;9.406;2023-04-29T00:41:01;5.63;;;5.07;;
13343;SDS011;6741;48.964;9.406;2023-04-29T00:43:28;6.43;;;5.30;;
13343;SDS011;6741;48.964;9.406;2023-04-29T00:45:55;9.03;;;5.83;;
13343;SDS011;6741;48.964;9.406;2023-04-29T00:48:22;19.47;;;4.97;;
13343;SDS011;6741;48.964;9.406;2023-04-29T00:50:49;20.67;;;3.63;;
13343;SDS011;6741;48.964;9.406;2023-04-29T00:53:17;5.57;;;3.10;;
13343;SDS011;6741;48.964;9.406;2023-04-29T00:55:44;10.63;;;3.47;;
13343;SDS011;6741;48.964;9.406;2023-04-29T00:58:14;3.27;;;3.00;;
13343;SDS011;6741;48.964;9.406;2023-04-29T01:00:41;9.30;;;3.37;;
13343;SDS011;6741;48.964;9.406;2023-04-29T01:03:11;3.40;;;3.10;;
13343;SDS011;6741;48.964;9.406;2023-04-29T01:05:38;7.53;;;3.23;;
13343;SDS011;6741;48.964;9.406;2023-04-29T01:08:12;3.50;;;3.20;;
13343;SDS011;6741;48.964;9.406;2023-04-29T01:10:48;4.33;;;3.13;;
13343;SDS011;6741;48.964;9.406;2023-04-29T01:13:25;3.50;;;3.17;;
13343;SDS011;6741;48.964;9.406;2023-04-29T01:16:00;3.40;;;3.10;;
13343;SDS011;6741;48.964;9.406;2023-04-29T01:18:29;4.63;;;3.37;;
13343;SDS011;6741;48.964;9.406;2023-04-29T01:20:58;5.37;;;3.37;;
13343;SDS011;6741;48.964;9.406;2023-04-29T01:23:27;5.67;;;2.97;;
13343;SDS011;6741;48.964;9.406;2023-04-29T01:25:54;15.60;;;3.90;;
13343;SDS011;6741;48.964;9.406;2023-04-29T01:28:26;3.47;;;3.17;;
13343;SDS011;6741;48.964;9.406;2023-04-29T01:31:05;3.17;;;2.87;;
13343;SDS011;6741;48.964;9.406;2023-04-29T01:33:39;3.67;;;3.30;;
13343;SDS011;6741;48.964;9.406;2023-04-29T01:36:12;9.80;;;4.53;;
13343;SDS011;6741;48.964;9.406;2023-04-29T01:38:51;6.20;;;3.27;;
13343;SDS011;6741;48.964;9.406;2023-04-29T01:41:25;5.97;;;3.27;;
13343;SDS011;6741;48.964;9.406;2023-04-29T01:43:58;3.43;;;3.13;;
13343;SDS011;6741;48.964;9.406;2023-04-29T01:46:28;4.83;;;3.30;;
13343;SDS011;6741;48.964;9.406;2023-04-29T01:48:56;4.23;;;3.73;;
13343;SDS011;6741;48.964;9.406;2023-04-29T01:51:23;4.30;;;3.60;;
13343;SDS011;6741;48.964;9.406;2023-04-29T01:53:52;3.60;;;3.30;;
13343;SDS011;6741;48.964;9.406;2023-04-29T01:56:19;3.63;;;3.33;;
13343;SDS011;6741;48.964;9.406;2023-04-29T01:58:45;6.40;;;3.43;;
13343;SDS011;6741;48.964;9.406;2023-04-29T02:01:12;3.67;;;2.90;;
13343;SDS011;6741;48.964;9.406;2023-04-29T02:03:39;3.83;;;3.47;;
13343;SDS011;6741;48.964;9.406;2023-04-29T02:06:06;4.23;;;3.83;;
13343;SDS011;6741;48.964;9.406;2023-04-29T02:08:33;4.03;;;3.63;;
13343;SDS011;6741;48.964;9.406;2023-04-29T02:11:01;6.93;;;3.83;;
13343;SDS011;6741;48.964;9.406;2023-04-29T02:13:28;5.83;;;4.37;;
13343;SDS011;6741;48.964;9.406;2023-04-29T02:15:56;6.07;;;4.10;;
13343;SDS011;6741;48.964;9.406;2023-04-29T02:18:22;6.07;;;4.77;;
13343;SDS011;6741;48.964;9.406;2023-04-29T02:20:49;7.53;;;4.53;;
13343;SDS011;6741;48.964;9.406;2023-04-29T02:23:18;6.00;;;4.03;;
13343;SDS011;6741;48.964;9.406;2023-04-29T02:25:45;4.90;;;4.40;;
13343;SDS011;6741;48.964;9.406;2023-04-29T02:28:13;4.47;;;4.07;;
13343;SDS011;6741;48.964;9.406;2023-04-29T02:30:40;8.47;;;4.27;;
13343;SDS011;6741;48.964;9.406;2023-04-29T02:33:07;9.17;;;4.07;;
13343;SDS011;6741;48.964;9.406;2023-04-29T02:35:34;4.43;;;4.03;;
13343;SDS011;6741;48.964;9.406;2023-04-29T02:38:01;4.80;;;4.30;;
13343;SDS011;6741;48.964;9.406;2023-04-29T02:40:28;4.27;;;3.87;;
13343;SDS011;6741;48.964;9.406;2023-04-29T02:42:55;4.63;;;4.13;;
13343;SDS011;6741;48.964;9.406;2023-04-29T02:45:23;8.83;;;4.40;;
13343;SDS011;6741;48.964;9.406;2023-04-29T02:47:50;6.73;;;4.70;;
13343;SDS011;6741;48.964;9.406;2023-04-29T02:50:17;4.93;;;4.30;;
13343;SDS011;6741;48.964;9.406;2023-04-29T02:52:44;6.57;;;4.70;;
13343;SDS011;6741;48.964;9.406;2023-04-29T02:55:11;7.80;;;4.10;;
13343;SDS011;6741;48.964;9.406;2023-04-29T02:57:38;6.40;;;3.90;;
13343;SDS011;6741;48.964;9.406;2023-04-29T03:00:05;5.27;;;4.23;;
13343;SDS011;6741;48.964;9.406;2023-04-29T03:02:35;5.07;;;4.50;;
13343;SDS011;6741;48.964;9.406;2023-04-29T03:05:02;4.13;;;3.73;;
13343;SDS011;6741;48.964;9.406;2023-04-29T03:07:29;4.67;;;4.00;;
13343;SDS011;6741;48.964;9.406;2023-04-29T03:09:57;4.77;;;4.27;;
13343;SDS011;6741;48.964;9.406;2023-04-29T03:12:24;4.90;;;4.40;;
13343;SDS011;6741;48.964;9.406;2023-04-29T03:14:50;6.03;;;4.20;;
13343;SDS011;6741;48.964;9.406;2023-04-29T03:17:17;6.70;;;4.40;;
13343;SDS011;6741;48.964;9.406;2023-04-29T03:19:45;6.10;;;4.63;;
13343;SDS011;6741;48.964;9.406;2023-04-29T03:22:12;7.23;;;4.83;;
13343;SDS011;6741;48.964;9.406;2023-04-29T03:24:39;7.53;;;4.20;;
13343;SDS011;6741;48.964;9.406;2023-04-29T03:27:06;5.93;;;4.30;;
13343;SDS011;6741;48.964;9.406;2023-04-29T03:29:33;11.63;;;4.73;;
13343;SDS011;6741;48.964;9.406;2023-04-29T03:32:00;7.33;;;5.13;;
13343;SDS011;6741;48.964;9.406;2023-04-29T03:34:27;14.13;;;7.30;;
13343;SDS011;6741;48.964;9.406;2023-04-29T03:36:55;14.73;;;8.33;;
13343;SDS011;6741;48.964;9.406;2023-04-29T03:39:23;13.97;;;8.30;;
13343;SDS011;6741;48.964;9.406;2023-04-29T03:41:49;10.57;;;6.10;;
13343;SDS011;6741;48.964;9.406;2023-04-29T03:44:16;13.40;;;6.13;;
13343;SDS011;6741;48.964;9.406;2023-04-29T03:46:43;12.47;;;5.63;;
13343;SDS011;6741;48.964;9.406;2023-04-29T03:49:10;8.83;;;6.27;;
13343;SDS011;6741;48.964;9.406;2023-04-29T03:51:37;11.13;;;5.83;;
13343;SDS011;6741;48.964;9.406;2023-04-29T03:54:05;14.20;;;6.20;;
13343;SDS011;6741;48.964;9.406;2023-04-29T03:56:33;8.53;;;6.10;;
13343;SDS011;6741;48.964;9.406;2023-04-29T03:59:01;12.70;;;6.03;;
13343;SDS011;6741;48.964;9.406;2023-04-29T04:01:28;9.30;;;6.53;;
13343;SDS011;6741;48.964;9.406;2023-04-29T04:03:54;9.47;;;6.40;;
13343;SDS011;6741;48.964;9.406;2023-04-29T04:06:21;10.70;;;6.87;;
13343;SDS011;6741;48.964;9.406;2023-04-29T04:08:48;11.37;;;8.13;;
13343;SDS011;6741;48.964;9.406;2023-04-29T04:11:17;12.17;;;6.83;;
13343;SDS011;6741;48.964;9.406;2023-04-29T04:13:43;18.17;;;7.80;;
13343;SDS011;6741;48.964;9.406;2023-04-29T04:16:10;17.83;;;7.67;;
13343;SDS011;6741;48.964;9.406;2023-04-29T04:18:37;21.77;;;7.70;;
13343;SDS011;6741;48.964;9.406;2023-04-29T04:21:05;20.20;;;8.03;;
13343;SDS011;6741;48.964;9.406;2023-04-29T04:23:32;16.67;;;7.80;;
13343;SDS011;6741;48.964;9.406;2023-04-29T04:25:59;12.90;;;7.47;;
13343;SDS011;6741;48.964;9.406;2023-04-29T04:28:27;13.80;;;7.87;;
13343;SDS011;6741;48.964;9.406;2023-04-29T04:30:54;13.93;;;7.60;;
13343;SDS011;6741;48.964;9.406;2023-04-29T04:33:21;13.70;;;8.13;;
13343;SDS011;6741;48.964;9.406;2023-04-29T04:35:48;14.07;;;8.27;;
13343;SDS011;6741;48.964;9.406;2023-04-29T04:38:15;12.07;;;7.60;;
13343;SDS011;6741;48.964;9.406;2023-04-29T04:40:42;16.13;;;8.37;;
13343;SDS011;6741;48.964;9.406;2023-04-29T04:43:10;19.73;;;8.43;;
13343;SDS011;6741;48.964;9.406;2023-04-29T04:45:38;15.93;;;7.63;;
13343;SDS011;6741;48.964;9.406;2023-04-29T04:48:05;18.00;;;8.43;;
13343;SDS011;6741;48.964;9.406;2023-04-29T04:50:32;19.87;;;9.40;;
13343;SDS011;6741;48.964;9.406;2023-04-29T04:52:59;25.20;;;10.50;;
13343;SDS011;6741;48.964;9.406;2023-04-29T04:55:26;27.23;;;10.40;;
13343;SDS011;6741;48.964;9.406;2023-04-29T04:57:53;21.37;;;9.60;;
13343;SDS011;6741;48.964;9.406;2023-04-29T05:00:20;15.40;;;9.37;;
13343;SDS011;6741;48.964;9.406;2023-04-29T05:02:48;16.57;;;9.20;;
13343;SDS011;6741;48.964;9.406;2023-04-29T05:05:15;16.03;;;9.07;;
13343;SDS011;6741;48.964;9.406;2023-04-29T05:07:42;11.73;;;8.90;;
13343;SDS011;6741;48.964;9.406;2023-04-29T05:10:09;14.83;;;9.87;;
13343;SDS011;6741;48.964;9.406;2023-04-29T05:12:36;12.57;;;9.83;;
13343;SDS011;6741;48.964;9.406;2023-04-29T05:15:03;14.00;;;10.13;;
13343;SDS011;6741;48.964;9.406;2023-04-29T05:17:31;12.03;;;9.87;;
13343;SDS011;6741;48.964;9.406;2023-04-29T05:20:00;12.50;;;9.97;;
13343;SDS011;6741;48.964;9.406;2023-04-29T05:22:27;14.03;;;11.73;;
13343;SDS011;6741;48.964;9.406;2023-04-29T05:24:54;16.23;;;13.27;;
13343;SDS011;6741;48.964;9.406;2023-04-29T05:27:26;20.00;;;15.13;;
13343;SDS011;6741;48.964;9.406;2023-04-29T05:29:53;20.87;;;17.30;;
13343;SDS011;6741;48.964;9.406;2023-04-29T05:32:20;22.40;;;18.03;;
13343;SDS011;6741;48.964;9.406;2023-04-29T05:34:47;21.67;;;18.13;;
13343;SDS011;6741;48.964;9.406;2023-04-29T05:37:16;21.60;;;18.03;;
13343;SDS011;6741;48.964;9.406;2023-04-29T05:39:42;23.57;;;18.87;;
13343;SDS011;6741;48.964;9.406;2023-04-29T05:42:09;24.60;;;18.07;;
13343;SDS011;6741;48.964;9.406;2023-04-29T05:44:36;22.23;;;17.77;;
13343;SDS011;6741;48.964;9.406;2023-04-29T05:47:04;21.90;;;17.33;;
13343;SDS011;6741;48.964;9.406;2023-04-29T05:49:31;22.97;;;17.67;;
13343;SDS011;6741;48.964;9.406;2023-04-29T05:51:57;19.33;;;15.87;;
13343;SDS011;6741;48.964;9.406;2023-04-29T05:54:29;18.67;;;16.40;;
13343;SDS011;6741;48.964;9.406;2023-04-29T05:56:56;18.23;;;15.97;;
13343;SDS011;6741;48.964;9.406;2023-04-29T05:59:23;18.97;;;16.40;;
13343;SDS011;6741;48.964;9.406;2023-04-29T06:01:50;18.60;;;15.93;;
13343;SDS011;6741;48.964;9.406;2023-04-29T06:04:17;18.67;;;14.63;;
13343;SDS011;6741;48.964;9.406;2023-04-29T06:06:44;17.60;;;14.40;;
13343;SDS011;6741;48.964;9.406;2023-04-29T06:09:11;15.23;;;13.73;;
13343;SDS011;6741;48.964;9.406;2023-04-29T06:11:41;14.03;;;12.63;;
13343;SDS011;6741;48.964;9.406;2023-04-29T06:14:09;13.70;;;12.30;;
13343;SDS011;6741;48.964;9.406;2023-04-29T06:16:36;10.83;;;9.73;;
13343;SDS011;6741;48.964;9.406;2023-04-29T06:19:06;10.83;;;9.90;;
13343;SDS011;6741;48.964;9.406;2023-04-29T06:21:33;11.20;;;10.17;;
13343;SDS011;6741;48.964;9.406;2023-04-29T06:24:00;10.10;;;9.10;;
13343;SDS011;6741;48.964;9.406;2023-04-29T06:26:27;11.57;;;10.47;;
13343;SDS011;6741;48.964;9.406;2023-04-29T06:28:55;11.03;;;9.93;;
13343;SDS011;6741;48.964;9.406;2023-04-29T06:31:22;10.97;;;9.93;;
13343;SDS011;6741;48.964;9.406;2023-04-29T06:33:49;11.73;;;10.50;;
13343;SDS011;6741;48.964;9.406;2023-04-29T06:36:17;12.10;;;11.00;;
13343;SDS011;6741;48.964;9.406;2023-04-29T06:38:44;11.47;;;10.37;;
13343;SDS011;6741;48.964;9.406;2023-04-29T06:41:13;11.07;;;10.07;;
13343;SDS011;6741;48.964;9.406;2023-04-29T06:43:39;11.07;;;10.07;;
13343;SDS011;6741;48.964;9.406;2023-04-29T06:46:09;10.17;;;9.30;;
13343;SDS011;6741;48.964;9.406;2023-04-29T06:48:37;10.43;;;9.43;;
13343;SDS011;6741;48.964;9.406;2023-04-29T06:51:04;12.00;;;10.50;;
13343;SDS011;6741;48.964;9.406;2023-04-29T06:53:31;12.03;;;10.77;;
13343;SDS011;6741;48.964;9.406;2023-04-29T06:55:58;11.47;;;10.40;;
13343;SDS011;6741;48.964;9.406;2023-04-29T06:58:24;11.93;;;10.83;;
13343;SDS011;6741;48.964;9.406;2023-04-29T07:00:52;11.63;;;10.53;;
13343;SDS011;6741;48.964;9.406;2023-04-29T07:03:20;11.40;;;10.27;;
13343;SDS011;6741;48.964;9.406;2023-04-29T07:05:50;11.57;;;10.37;;
13343;SDS011;6741;48.964;9.406;2023-04-29T07:08:17;10.93;;;9.77;;
13343;SDS011;6741;48.964;9.406;2023-04-29T07:10:45;10.10;;;8.97;;
13343;SDS011;6741;48.964;9.406;2023-04-29T07:13:20;9.70;;;8.90;;
13343;SDS011;6741;48.964;9.406;2023-04-29T07:15:50;8.23;;;7.43;;
13343;SDS011;6741;48.964;9.406;2023-04-29T07:18:24;7.97;;;7.17;;
13343;SDS011;6741;48.964;9.406;2023-04-29T07:20:52;7.07;;;6.47;;
13343;SDS011;6741;48.964;9.406;2023-04-29T07:23:20;7.03;;;6.33;;
13343;SDS011;6741;48.964;9.406;2023-04-29T07:25:48;6.20;;;5.70;;
13343;SDS011;6741;48.964;9.406;2023-04-29T07:28:16;6.00;;;5.37;;
13343;SDS011;6741;48.964;9.406;2023-04-29T07:30:45;5.67;;;5.27;;
13343;SDS011;6741;48.964;9.406;2023-04-29T07:33:15;6.27;;;5.77;;
13343;SDS011;6741;48.964;9.406;2023-04-29T07:35:44;5.30;;;4.90;;
13343;SDS011;6741;48.964;9.406;2023-04-29T07:38:13;5.43;;;5.00;;
13343;SDS011;6741;48.964;9.406;2023-04-29T07:40:40;5.57;;;5.07;;
13343;SDS011;6741;48.964;9.406;2023-04-29T07:43:07;5.63;;;5.13;;
13343;SDS011;6741;48.964;9.406;2023-04-29T07:45:34;5.10;;;4.60;;
13343;SDS011;6741;48.964;9.406;2023-04-29T07:48:01;6.97;;;4.77;;
13343;SDS011;6741;48.964;9.406;2023-04-29T07:50:28;5.77;;;4.30;;
13343;SDS011;6741;48.964;9.406;2023-04-29T07:52:57;5.73;;;5.10;;
13343;SDS011;6741;48.964;9.406;2023-04-29T07:55:25;5.33;;;4.73;;
13343;SDS011;6741;48.964;9.406;2023-04-29T07:57:53;5.47;;;4.70;;
13343;SDS011;6741;48.964;9.406;2023-04-29T08:00:21;4.60;;;4.23;;
13343;SDS011;6741;48.964;9.406;2023-04-29T08:02:49;5.40;;;4.53;;
13343;SDS011;6741;48.964;9.406;2023-04-29T08:05:16;4.47;;;4.10;;
13343;SDS011;6741;48.964;9.406;2023-04-29T08:07:44;4.23;;;3.83;;
13343;SDS011;6741;48.964;9.406;2023-04-29T08:10:12;4.77;;;4.13;;
13343;SDS011;6741;48.964;9.406;2023-04-29T08:12:40;4.67;;;4.23;;
13343;SDS011;6741;48.964;9.406;2023-04-29T08:15:07;4.40;;;4.10;;
13343;SDS011;6741;48.964;9.406;2023-04-29T08:17:34;8.07;;;4.20;;
13343;SDS011;6741;48.964;9.406;2023-04-29T08:20:01;4.17;;;3.87;;
13343;SDS011;6741;48.964;9.406;2023-04-29T08:22:28;4.63;;;4.23;;
13343;SDS011;6741;48.964;9.406;2023-04-29T08:24:55;4.43;;;4.07;;
13343;SDS011;6741;48.964;9.406;2023-04-29T08:27:24;4.50;;;4.10;;
13343;SDS011;6741;48.964;9.406;2023-04-29T08:29:51;5.13;;;4.73;;
13343;SDS011;6741;48.964;9.406;2023-04-29T08:32:18;4.80;;;4.40;;
13343;SDS011;6741;48.964;9.406;2023-04-29T08:34:44;4.93;;;4.50;;
13343;SDS011;6741;48.964;9.406;2023-04-29T08:37:12;4.90;;;4.50;;
13343;SDS011;6741;48.964;9.406;2023-04-29T08:39:40;4.70;;;4.33;;
13343;SDS011;6741;48.964;9.406;2023-04-29T08:42:07;4.87;;;3.80;;
13343;SDS011;6741;48.964;9.406;2023-04-29T08:44:36;6.90;;;4.40;;
13343;SDS011;6741;48.964;9.406;2023-04-29T08:47:04;5.00;;;4.50;;
13343;SDS011;6741;48.964;9.406;2023-04-29T08:49:32;4.60;;;4.20;;
13343;SDS011;6741;48.964;9.406;2023-04-29T08:52:02;4.80;;;4.40;;
13343;SDS011;6741;48.964;9.406;2023-04-29T08:54:30;4.93;;;4.40;;
13343;SDS011;6741;48.964;9.406;2023-04-29T08:56:57;4.20;;;3.80;;
13343;SDS011;6741;48.964;9.406;2023-04-29T08:59:26;3.70;;;3.40;;
13343;SDS011;6741;48.964;9.406;2023-04-29T09:01:55;3.87;;;3.57;;
13343;SDS011;6741;48.964;9.406;2023-04-29T09:04:27;5.50;;;4.30;;
13343;SDS011;6741;48.964;9.406;2023-04-29T09:07:02;4.27;;;3.97;;
13343;SDS011;6741;48.964;9.406;2023-04-29T09:09:30;4.57;;;4.07;;
13343;SDS011;6741;48.964;9.406;2023-04-29T09:11:58;8.53;;;4.20;;
13343;SDS011;6741;48.964;9.406;2023-04-29T09:14:25;4.07;;;3.77;;
13343;SDS011;6741;48.964;9.406;2023-04-29T09:16:55;4.30;;;4.00;;
13343;SDS011;6741;48.964;9.406;2023-04-29T09:19:30;3.67;;;3.38;;
13343;SDS011;6741;48.964;9.406;2023-04-29T09:21:58;3.22;;;3.03;;
13343;SDS011;6741;48.964;9.406;2023-04-29T09:24:26;3.93;;;3.63;;
13343;SDS011;6741;48.964;9.406;2023-04-29T09:26:57;3.88;;;3.58;;
13343;SDS011;6741;48.964;9.406;2023-04-29T09:29:25;4.10;;;3.80;;
13343;SDS011;6741;48.964;9.406;2023-04-29T09:31:53;3.60;;;3.40;;
13343;SDS011;6741;48.964;9.406;2023-04-29T09:34:32;4.07;;;3.77;;
13343;SDS011;6741;48.964;9.406;2023-04-29T09:37:02;4.03;;;3.73;;
13343;SDS011;6741;48.964;9.406;2023-04-29T09:39:36;4.77;;;3.80;;
13343;SDS011;6741;48.964;9.406;2023-04-29T09:42:04;4.10;;;3.70;;
13343;SDS011;6741;48.964;9.406;2023-04-29T09:44:33;4.07;;;3.63;;
13343;SDS011;6741;48.964;9.406;2023-04-29T09:47:03;4.07;;;3.77;;
13343;SDS011;6741;48.964;9.406;2023-04-29T09:49:32;4.07;;;3.67;;
13343;SDS011;6741;48.964;9.406;2023-04-29T09:52:02;3.67;;;3.37;;
13343;SDS011;6741;48.964;9.406;2023-04-29T09:54:30;3.77;;;3.53;;
13343;SDS011;6741;48.964;9.406;2023-04-29T09:56:58;3.80;;;3.50;;
13343;SDS011;6741;48.964;9.406;2023-04-29T09:59:30;4.10;;;3.80;;
13343;SDS011;6741;48.964;9.406;2023-04-29T10:02:00;3.80;;;3.50;;
13343;SDS011;6741;48.964;9.406;2023-04-29T10:04:34;4.43;;;4.03;;
13343;SDS011;6741;48.964;9.406;2023-04-29T10:07:05;4.60;;;4.20;;
13343;SDS011;6741;48.964;9.406;2023-04-29T10:09:33;4.27;;;3.97;;
13343;SDS011;6741;48.964;9.406;2023-04-29T10:12:03;4.47;;;4.07;;
13343;SDS011;6741;48.964;9.406;2023-04-29T10:14:32;4.43;;;4.13;;
13343;SDS011;6741;48.964;9.406;2023-04-29T10:17:09;4.50;;;4.10;;
13343;SDS011;6741;48.964;9.406;2023-04-29T10:19:42;4.90;;;4.50;;
13343;SDS011;6741;48.964;9.406;2023-04-29T10:22:18;4.57;;;4.17;;
13343;SDS011;6741;48.964;9.406;2023-04-29T10:24:51;4.87;;;4.47;;
13343;SDS011;6741;48.964;9.406;2023-04-29T10:27:20;4.90;;;4.50;;
13343;SDS011;6741;48.964;9.406;2023-04-29T10:29:49;4.87;;;4.47;;
13343;SDS011;6741;48.964;9.406;2023-04-29T10:32:18;5.50;;;5.10;;
13343;SDS011;6741;48.964;9.406;2023-04-29T10:34:48;5.70;;;5.20;;
13343;SDS011;6741;48.964;9.406;2023-04-29T10:37:17;7.70;;;5.20;;
13343;SDS011;6741;48.964;9.406;2023-04-29T10:39:45;5.50;;;5.10;;
13343;SDS011;6741;48.964;9.406;2023-04-29T10:42:20;6.53;;;5.77;;
13343;SDS011;6741;48.964;9.406;2023-04-29T10:48:08;4.90;;;4.50;;
13343;SDS011;6741;48.964;9.406;2023-04-29T10:50:59;5.47;;;4.50;;
13343;SDS011;6741;48.964;9.406;2023-04-29T10:53:30;4.57;;;4.25;;
13343;SDS011;6741;48.964;9.406;2023-04-29T10:55:58;7.88;;;5.75;;
13343;SDS011;6741;48.964;9.406;2023-04-29T10:58:33;4.60;;;4.20;;
13343;SDS011;6741;48.964;9.406;2023-04-29T11:01:01;4.32;;;4.03;;
13343;SDS011;6741;48.964;9.406;2023-04-29T11:03:47;4.57;;;4.22;;
13343;SDS011;6741;48.964;9.406;2023-04-29T11:06:24;7.25;;;4.82;;
13343;SDS011;6741;48.964;9.406;2023-04-29T11:09:06;5.47;;;5.03;;
13343;SDS011;6741;48.964;9.406;2023-04-29T11:11:41;6.43;;;5.68;;
13343;SDS011;6741;48.964;9.406;2023-04-29T11:14:09;6.00;;;5.50;;
13343;SDS011;6741;48.964;9.406;2023-04-29T11:16:45;7.10;;;5.35;;
13343;SDS011;6741;48.964;9.406;2023-04-29T11:19:14;5.38;;;4.88;;
13343;SDS011;6741;48.964;9.406;2023-04-29T11:21:44;5.05;;;4.53;;
13343;SDS011;6741;48.964;9.406;2023-04-29T11:24:12;5.28;;;4.78;;
13343;SDS011;6741;48.964;9.406;2023-04-29T11:26:41;6.95;;;5.93;;
13343;SDS011;6741;48.964;9.406;2023-04-29T11:29:10;6.45;;;5.53;;
13343;SDS011;6741;48.964;9.406;2023-04-29T11:31:37;6.30;;;5.18;;
13343;SDS011;6741;48.964;9.406;2023-04-29T11:34:04;6.68;;;6.03;;
13343;SDS011;6741;48.964;9.406;2023-04-29T11:36:32;7.18;;;6.47;;
13343;SDS011;6741;48.964;9.406;2023-04-29T11:39:01;11.57;;;7.05;;
13343;SDS011;6741;48.964;9.406;2023-04-29T11:41:30;6.68;;;5.97;;
13343;SDS011;6741;48.964;9.406;2023-04-29T11:43:57;7.13;;;6.43;;
13343;SDS011;6741;48.964;9.406;2023-04-29T11:46:25;8.70;;;7.00;;
13343;SDS011;6741;48.964;9.406;2023-04-29T11:48:57;7.13;;;6.53;;
13343;SDS011;6741;48.964;9.406;2023-04-29T11:51:25;7.63;;;6.93;;
13343;SDS011;6741;48.964;9.406;2023-04-29T11:53:52;6.97;;;6.38;;
13343;SDS011;6741;48.964;9.406;2023-04-29T11:56:21;7.15;;;6.45;;
13343;SDS011;6741;48.964;9.406;2023-04-29T11:58:49;7.18;;;6.47;;
13343;SDS011;6741;48.964;9.406;2023-04-29T12:01:19;6.68;;;6.07;;
13343;SDS011;6741;48.964;9.406;2023-04-29T12:03:47;6.00;;;5.50;;
13343;SDS011;6741;48.964;9.406;2023-04-29T12:06:15;5.95;;;5.45;;
13343;SDS011;6741;48.964;9.406;2023-04-29T12:08:42;6.20;;;5.45;;
13343;SDS011;6741;48.964;9.406;2023-04-29T12:11:12;5.93;;;5.43;;
13343;SDS011;6741;48.964;9.406;2023-04-29T12:13:40;5.72;;;5.22;;
13343;SDS011;6741;48.964;9.406;2023-04-29T12:16:07;5.45;;;4.95;;
13343;SDS011;6741;48.964;9.406;2023-04-29T12:18:35;5.97;;;5.10;;
13343;SDS011;6741;48.964;9.406;2023-04-29T12:21:03;5.82;;;5.32;;
13343;SDS011;6741;48.964;9.406;2023-04-29T12:23:30;7.20;;;6.50;;
13343;SDS011;6741;48.964;9.406;2023-04-29T12:25:58;6.43;;;5.70;;
13343;SDS011;6741;48.964;9.406;2023-04-29T12:28:26;6.53;;;5.93;;
13343;SDS011;6741;48.964;9.406;2023-04-29T12:30:57;6.53;;;5.78;;
13343;SDS011;6741;48.964;9.406;2023-04-29T12:33:26;7.85;;;6.45;;
13343;SDS011;6741;48.964;9.406;2023-04-29T12:35:55;7.88;;;6.93;;
13343;SDS011;6741;48.964;9.406;2023-04-29T12:38:23;8.27;;;7.50;;
13343;SDS011;6741;48.964;9.406;2023-04-29T12:40:52;8.20;;;7.40;;
13343;SDS011;6741;48.964;9.406;2023-04-29T12:43:24;7.95;;;7.22;;
13343;SDS011;6741;48.964;9.406;2023-04-29T12:45:53;9.05;;;8.15;;
13343;SDS011;6741;48.964;9.406;2023-04-29T12:48:22;8.25;;;7.50;;
13343;SDS011;6741;48.964;9.406;2023-04-29T12:50:55;6.93;;;6.32;;
13343;SDS011;6741;48.964;9.406;2023-04-29T12:53:23;8.32;;;6.65;;
13343;SDS011;6741;48.964;9.406;2023-04-29T12:55:51;7.53;;;6.78;;
13343;SDS011;6741;48.964;9.406;2023-04-29T12:58:19;8.65;;;7.20;;
13343;SDS011;6741;48.964;9.406;2023-04-29T13:00:46;7.97;;;7.18;;
13343;SDS011;6741;48.964;9.406;2023-04-29T13:03:13;8.15;;;7.32;;
13343;SDS011;6741;48.964;9.406;2023-04-29T13:05:41;8.27;;;7.43;;
13343;SDS011;6741;48.964;9.406;2023-04-29T13:08:08;9.15;;;8.30;;
13343;SDS011;6741;48.964;9.406;2023-04-29T13:10:35;9.15;;;8.25;;
13343;SDS011;6741;48.964;9.406;2023-04-29T13:13:02;8.73;;;7.85;;
13343;SDS011;6741;48.964;9.406;2023-04-29T13:15:29;8.10;;;7.30;;
13343;SDS011;6741;48.964;9.406;2023-04-29T13:17:57;8.00;;;7.25;;
13343;SDS011;6741;48.964;9.406;2023-04-29T13:20:26;7.57;;;6.88;;
13343;SDS011;6741;48.964;9.406;2023-04-29T13:22:54;7.03;;;5.90;;
13343;SDS011;6741;48.964;9.406;2023-04-29T13:25:21;10.77;;;7.43;;
13343;SDS011;6741;48.964;9.406;2023-04-29T13:27:48;10.93;;;7.43;;
13343;SDS011;6741;48.964;9.406;2023-04-29T13:30:15;7.63;;;6.82;;
13343;SDS011;6741;48.964;9.406;2023-04-29T13:32:42;6.47;;;5.88;;
13343;SDS011;6741;48.964;9.406;2023-04-29T13:35:09;7.50;;;6.80;;
13343;SDS011;6741;48.964;9.406;2023-04-29T13:37:36;7.38;;;6.43;;
13343;SDS011;6741;48.964;9.406;2023-04-29T13:40:05;8.27;;;7.47;;
13343;SDS011;6741;48.964;9.406;2023-04-29T13:42:33;9.18;;;8.25;;
13343;SDS011;6741;48.964;9.406;2023-04-29T13:45:00;8.75;;;7.88;;
13343;SDS011;6741;48.964;9.406;2023-04-29T13:47:28;9.30;;;8.40;;
13343;SDS011;6741;48.964;9.406;2023-04-29T13:49:55;8.82;;;7.93;;
13343;SDS011;6741;48.964;9.406;2023-04-29T13:52:23;10.30;;;9.23;;
13343;SDS011;6741;48.964;9.406;2023-04-29T13:54:50;9.93;;;8.70;;
13343;SDS011;6741;48.964;9.406;2023-04-29T13:57:19;10.20;;;9.20;;
13343;SDS011;6741;48.964;9.406;2023-04-29T13:59:46;10.02;;;9.00;;
13343;SDS011;6741;48.964;9.406;2023-04-29T14:02:12;8.85;;;7.95;;
13343;SDS011;6741;48.964;9.406;2023-04-29T14:04:39;9.73;;;7.22;;
13343;SDS011;6741;48.964;9.406;2023-04-29T14:07:07;8.45;;;7.65;;
13343;SDS011;6741;48.964;9.406;2023-04-29T14:09:34;7.35;;;6.65;;
13343;SDS011;6741;48.964;9.406;2023-04-29T14:12:01;8.30;;;7.50;;
13343;SDS011;6741;48.964;9.406;2023-04-29T14:14:29;7.97;;;7.17;;
13343;SDS011;6741;48.964;9.406;2023-04-29T14:16:56;11.52;;;7.10;;
13343;SDS011;6741;48.964;9.406;2023-04-29T14:19:25;7.30;;;6.57;;
13343;SDS011;6741;48.964;9.406;2023-04-29T14:21:52;9.05;;;7.50;;
13343;SDS011;6741;48.964;9.406;2023-04-29T14:24:19;8.70;;;7.65;;
13343;SDS011;6741;48.964;9.406;2023-04-29T14:26:46;9.13;;;7.78;;
13343;SDS011;6741;48.964;9.406;2023-04-29T14:29:14;9.40;;;8.40;;
13343;SDS011;6741;48.964;9.406;2023-04-29T14:31:42;8.38;;;7.57;;
13343;SDS011;6741;48.964;9.406;2023-04-29T14:34:09;8.98;;;8.07;;
13343;SDS011;6741;48.964;9.406;2023-04-29T14:36:37;8.75;;;7.75;;
13343;SDS011;6741;48.964;9.406;2023-04-29T14:39:05;12.52;;;7.82;;
13343;SDS011;6741;48.964;9.406;2023-04-29T14:41:32;8.45;;;7.65;;
13343;SDS011;6741;48.964;9.406;2023-04-29T14:43:59;8.57;;;7.68;;
13343;SDS011;6741;48.964;9.406;2023-04-29T14:46:26;9.07;;;7.93;;
13343;SDS011;6741;48.964;9.406;2023-04-29T14:48:54;9.15;;;8.25;;
13343;SDS011;6741;48.964;9.406;2023-04-29T14:51:21;8.70;;;7.80;;
13343;SDS011;6741;48.964;9.406;2023-04-29T14:53:49;10.20;;;7.72;;
13343;SDS011;6741;48.964;9.406;2023-04-29T14:56:16;9.40;;;8.10;;
13343;SDS011;6741;48.964;9.406;2023-04-29T14:58:43;11.27;;;8.07;;
13343;SDS011;6741;48.964;9.406;2023-04-29T15:01:10;9.65;;;8.02;;
13343;SDS011;6741;48.964;9.406;2023-04-29T15:03:38;10.98;;;8.90;;
13343;SDS011;6741;48.964;9.406;2023-04-29T15:06:07;10.57;;;8.55;;